Time;durP1;ratioP1;P1;durP2;ratioP2;P2;SDS_P1;SDS_P2;PMS_P1;PMS_P2;Temp;Humidity;BMP_temperature;BMP_pressure;BME280_temperature;BME280_humidity;BME280_pressure;Samples;Min_cycle;Max_cycle;Signal;HPM_P1;HPM_P2
2022/12/10 00:01:34;;;;;;;73.00;39.67;;;;;;;-4.46;100.00;100687.38;5104957;28;20028;-68
2022/12/10 00:04:00;;;;;;;77.88;40.95;;;;;;;-4.52;100.00;100687.00;5106662;28;20024;-74
2022/12/10 00:06:28;;;;;;;81.78;42.40;;;;;;;-4.44;100.00;100687.47;5105998;28;20034;-69
2022/12/10 00:08:54;;;;;;;75.90;41.67;;;;;;;-4.46;100.00;100695.13;5106731;28;20028;-74
2022/12/10 00:11:21;;;;;;;81.25;42.00;;;;;;;-4.48;100.00;100688.13;5107082;28;20034;-67
2022/12/10 00:13:48;;;;;;;84.00;43.47;;;;;;;-4.43;100.00;100694.44;5104630;28;20033;-67
2022/12/10 00:16:15;;;;;;;83.85;44.22;;;;;;;-4.42;100.00;100698.81;5106299;28;20124;-66
2022/12/10 00:18:41;;;;;;;87.93;44.33;;;;;;;-4.42;100.00;100697.09;5104837;28;20027;-67
2022/12/10 00:21:10;;;;;;;84.63;44.03;;;;;;;-4.40;100.00;100698.13;5108201;27;20032;-68
2022/12/10 00:23:37;;;;;;;89.25;44.00;;;;;;;-4.39;100.00;100699.00;5100584;28;20104;-68
2022/12/10 00:26:08;;;;;;;89.95;45.10;;;;;;;-4.43;100.00;100702.19;5107516;28;20067;-68
2022/12/10 00:28:34;;;;;;;86.07;44.20;;;;;;;-4.44;100.00;100705.53;5104688;28;20024;-69
2022/12/10 00:31:09;;;;;;;91.97;45.60;;;;;;;-4.35;100.00;100700.97;5107097;28;20031;-67
2022/12/10 00:33:34;;;;;;;89.28;44.92;;;;;;;-4.36;100.00;100706.03;5104355;28;20095;-67
2022/12/10 00:36:21;;;;;;;92.13;45.17;;;;;;;-4.33;100.00;100709.69;5107236;28;20062;-73
2022/12/10 00:38:47;;;;;;;84.93;44.20;;;;;;;-4.35;100.00;100710.38;5102860;28;20020;-68
2022/12/10 00:41:14;;;;;;;89.63;45.22;;;;;;;-4.38;100.00;100706.84;5106991;28;20130;-66
2022/12/10 00:43:40;;;;;;;86.95;46.40;;;;;;;-4.40;100.00;100718.75;5104161;28;20024;-66
2022/12/10 00:46:05;;;;;;;90.47;46.47;;;;;;;-4.43;100.00;100707.34;5100199;28;20035;-66
2022/12/10 00:48:31;;;;;;;83.70;43.05;;;;;;;-4.57;100.00;100702.22;5106873;28;20027;-65
2022/12/10 00:51:05;;;;;;;85.20;43.40;;;;;;;-4.59;100.00;100701.25;5105196;28;20042;-65
2022/12/10 00:53:32;;;;;;;84.55;44.67;;;;;;;-4.61;100.00;100694.19;5106183;28;20023;-65
2022/12/10 00:55:59;;;;;;;89.13;46.08;;;;;;;-4.60;100.00;100688.22;5105195;28;20034;-65
2022/12/10 00:58:28;;;;;;;86.13;45.70;;;;;;;-4.60;100.00;100698.53;5105718;28;20467;-66
2022/12/10 01:00:53;;;;;;;77.25;42.15;;;;;;;-4.69;100.00;100685.94;5105275;28;20391;-65
2022/12/10 01:03:19;;;;;;;89.72;43.75;;;;;;;-4.68;100.00;100682.56;5105290;28;20089;-65
2022/12/10 01:05:44;;;;;;;92.10;46.30;;;;;;;-4.71;100.00;100684.97;5106456;28;20030;-65
2022/12/10 01:08:11;;;;;;;88.47;44.47;;;;;;;-4.68;100.00;100687.75;5103744;28;20032;-65
2022/12/10 01:10:36;;;;;;;90.88;45.92;;;;;;;-4.72;100.00;100685.75;5099880;28;20051;-65
2022/12/10 01:13:02;;;;;;;91.65;46.13;;;;;;;-4.66;100.00;100693.91;5106496;28;20466;-65
2022/12/10 01:15:27;;;;;;;96.32;48.65;;;;;;;-4.66;100.00;100690.41;5103477;28;20027;-65
2022/12/10 01:17:53;;;;;;;97.05;48.15;;;;;;;-4.72;100.00;100693.50;5105275;28;20032;-66
2022/12/10 01:20:18;;;;;;;90.65;47.45;;;;;;;-4.72;100.00;100688.34;5105830;28;20035;-65
2022/12/10 01:22:43;;;;;;;94.78;48.50;;;;;;;-4.65;100.00;100694.78;5103982;28;20043;-66
2022/12/10 01:25:09;;;;;;;97.35;47.55;;;;;;;-4.69;100.00;100693.69;5106716;28;20027;-66
2022/12/10 01:27:34;;;;;;;95.35;47.38;;;;;;;-4.77;100.00;100697.50;5103172;28;20032;-68
2022/12/10 01:29:59;;;;;;;90.03;46.08;;;;;;;-4.84;100.00;100700.47;5106132;28;20174;-66
2022/12/10 01:32:25;;;;;;;93.57;46.92;;;;;;;-4.83;100.00;100704.84;5104488;28;20032;-67
2022/12/10 01:34:50;;;;;;;90.97;47.00;;;;;;;-4.85;100.00;100711.56;5104706;28;20039;-67
2022/12/10 01:37:16;;;;;;;92.80;47.55;;;;;;;-4.85;100.00;100712.44;5105858;28;20032;-67
2022/12/10 01:39:41;;;;;;;94.88;47.67;;;;;;;-4.82;100.00;100720.41;5101810;28;20056;-67
2022/12/10 01:42:11;;;;;;;99.68;48.13;;;;;;;-4.78;100.00;100721.50;5106442;28;20044;-67
2022/12/10 01:44:42;;;;;;;100.85;49.42;;;;;;;-4.74;100.00;100721.78;5098930;28;20536;-67
2022/12/10 01:47:08;;;;;;;99.03;48.60;;;;;;;-4.72;100.00;100719.28;5098925;28;20028;-67
2022/12/10 01:49:37;;;;;;;96.88;47.35;;;;;;;-4.74;100.00;100720.91;5104724;28;20024;-67
2022/12/10 01:52:04;;;;;;;103.85;49.28;;;;;;;-4.69;100.00;100714.31;5102093;28;20090;-68
2022/12/10 01:54:34;;;;;;;112.20;50.75;;;;;;;-4.61;100.00;100718.28;5105282;28;20032;-68
2022/12/10 01:57:25;;;;;;;137.63;50.83;;;;;;;-4.57;100.00;100716.81;5103584;28;20115;-67
2022/12/10 01:59:56;;;;;;;136.77;51.38;;;;;;;-4.54;100.00;100714.44;5094535;28;20040;-68
2022/12/10 02:02:34;;;;;;;162.13;52.38;;;;;;;-4.51;100.00;100716.28;5103134;28;20046;-67
2022/12/10 02:05:41;;;;;;;210.30;50.60;;;;;;;-4.50;100.00;100721.56;5104457;28;20111;-73
2022/12/10 02:08:24;;;;;;;198.57;49.83;;;;;;;-4.50;100.00;100721.56;5092740;28;20040;-74
2022/12/10 02:10:57;;;;;;;258.23;53.75;;;;;;;-4.54;100.00;100724.75;5101653;28;20024;-67
2022/12/10 02:13:28;;;;;;;;;;;;;;;-4.54;100.00;100724.75;5103411;28;20156;-65
2022/12/10 02:16:04;;;;;;;162.25;50.97;;;;;;;-4.48;100.00;100722.53;5104406;28;19934;-65
2022/12/10 02:18:42;;;;;;;236.98;53.97;;;;;;;-4.42;100.00;100724.63;5103364;28;20030;-65
2022/12/10 02:21:24;;;;;;;179.20;50.65;;;;;;;-4.38;100.00;100719.75;5098566;28;20012;-65
2022/12/10 02:23:57;;;;;;;177.60;50.80;;;;;;;-4.35;100.00;100724.22;5101077;28;20106;-65
2022/12/10 02:26:33;;;;;;;175.40;52.13;;;;;;;-4.30;100.00;100715.03;5103845;28;20111;-65
2022/12/10 02:29:20;;;;;;;143.82;49.50;;;;;;;-4.20;100.00;100719.97;5104479;28;20165;-65
2022/12/10 02:32:08;;;;;;;154.98;51.33;;;;;;;-4.22;100.00;100713.84;5099741;28;20024;-65
2022/12/10 02:34:38;;;;;;;136.57;53.25;;;;;;;-4.20;100.00;100722.56;5102224;28;20016;-65
2022/12/10 02:37:10;;;;;;;151.27;53.17;;;;;;;-4.17;100.00;100721.88;5105489;28;20019;-65
2022/12/10 02:39:41;;;;;;;158.10;51.45;;;;;;;-4.13;100.00;100722.97;5102124;28;20031;-65
2022/12/10 02:42:11;;;;;;;133.90;52.03;;;;;;;-4.10;100.00;100717.97;5097512;28;20403;-65
2022/12/10 02:44:38;;;;;;;137.07;51.47;;;;;;;-4.05;100.00;100721.72;5097683;28;20107;-65
2022/12/10 02:47:05;;;;;;;143.20;53.80;;;;;;;-4.05;100.00;100711.38;5105063;28;20486;-65
2022/12/10 02:49:30;;;;;;;130.00;53.00;;;;;;;-3.98;100.00;100716.13;5102673;28;20075;-65
2022/12/10 02:51:56;;;;;;;134.30;53.17;;;;;;;-3.95;100.00;100708.56;5103776;28;20028;-65
2022/12/10 02:54:43;;;;;;;142.57;52.30;;;;;;;-3.93;100.00;100711.22;5102494;28;20040;-67
2022/12/10 02:57:23;;;;;;;124.00;50.83;;;;;;;-3.90;100.00;100717.50;5097899;28;20027;-66
2022/12/10 02:59:54;;;;;;;121.75;51.28;;;;;;;-3.82;100.00;100714.47;5100256;28;20039;-68
2022/12/10 03:02:29;;;;;;;123.15;49.30;;;;;;;-3.80;100.00;100723.19;5104068;28;20421;-68
2022/12/10 03:05:25;;;;;;;132.68;51.10;;;;;;;-3.79;100.00;100725.00;5103293;28;20024;-66
2022/12/10 03:08:18;;;;;;;132.30;51.72;;;;;;;-3.77;100.00;100728.56;5100317;28;20090;-67
2022/12/10 03:10:55;;;;;;;124.55;49.03;;;;;;;-3.76;100.00;100726.06;5097016;28;20383;-67
2022/12/10 03:13:28;;;;;;;126.53;48.50;;;;;;;-3.77;100.00;100728.56;5103535;28;20127;-68
2022/12/10 03:15:54;;;;;;;123.10;49.70;;;;;;;-3.75;100.00;100722.69;5102924;28;20024;-66
2022/12/10 03:18:24;;;;;;;122.28;50.92;;;;;;;-3.74;100.00;100728.72;5102530;28;20031;-66
2022/12/10 03:20:52;;;;;;;133.90;50.67;;;;;;;-3.75;100.00;100722.69;5102462;28;20016;-68
2022/12/10 03:23:18;;;;;;;133.02;50.13;;;;;;;-3.75;100.00;100724.38;5103836;28;20056;-68
2022/12/10 03:25:46;;;;;;;126.72;50.88;;;;;;;-3.75;100.00;100720.09;5101427;28;20031;-68
2022/12/10 03:28:12;;;;;;;127.40;50.33;;;;;;;-3.76;100.00;100720.88;5104876;27;20038;-67
2022/12/10 03:30:40;;;;;;;129.73;50.70;;;;;;;-3.74;100.00;100724.47;5097156;28;20036;-67
2022/12/10 03:33:06;;;;;;;138.45;49.95;;;;;;;-3.75;100.00;100722.69;5103145;28;20027;-66
2022/12/10 03:35:32;;;;;;;139.68;49.95;;;;;;;-3.76;100.00;100720.00;5101838;28;20487;-69
2022/12/10 03:37:58;;;;;;;138.20;49.33;;;;;;;-3.79;100.00;100725.00;5084126;28;20040;-67
2022/12/10 03:40:25;;;;;;;145.77;50.50;;;;;;;-3.79;100.00;100730.16;5101462;28;20035;-73
2022/12/10 03:42:50;;;;;;;132.15;49.95;;;;;;;-3.71;100.00;100727.25;5102747;28;20131;-72
2022/12/10 03:45:16;;;;;;;130.13;47.72;;;;;;;-3.70;100.00;100728.13;5103828;28;20110;-72
2022/12/10 03:47:41;;;;;;;149.80;49.00;;;;;;;-3.72;100.00;100733.19;5079335;28;20041;-68
2022/12/10 03:50:08;;;;;;;164.13;48.20;;;;;;;-3.71;100.00;100729.81;5096986;28;20502;-72
2022/12/10 03:52:33;;;;;;;157.70;48.72;;;;;;;-3.75;100.00;100732.13;5104029;28;20119;-72
2022/12/10 03:54:58;;;;;;;158.15;47.65;;;;;;;-3.75;100.00;100737.31;5102474;28;20059;-72
2022/12/10 03:57:24;;;;;;;147.60;49.80;;;;;;;-3.74;100.00;100741.66;5102509;28;20386;-72
2022/12/10 03:59:49;;;;;;;147.05;49.13;;;;;;;-3.74;100.00;100739.06;5103283;28;20028;-73
2022/12/10 04:02:15;;;;;;;149.40;48.95;;;;;;;-3.75;100.00;100735.59;5101505;28;20032;-67
2022/12/10 04:04:40;;;;;;;188.07;49.70;;;;;;;-3.75;100.00;100737.31;5103109;28;20023;-70
2022/12/10 04:07:06;;;;;;;196.63;50.47;;;;;;;-3.76;100.00;100740.69;5100933;28;20040;-72
2022/12/10 04:09:31;;;;;;;160.48;51.00;;;;;;;-3.75;100.00;100737.31;5103666;28;20025;-72
2022/12/10 04:11:58;;;;;;;161.30;50.63;;;;;;;-3.74;100.00;100744.22;5100833;28;20035;-72
2022/12/10 04:17:09;;;;;;;223.98;50.40;;;;;;;-3.74;100.00;100736.47;5097118;28;20532;-72
2022/12/10 04:19:34;;;;;;;155.35;48.97;;;;;;;-3.74;100.00;100745.16;5104010;28;20036;-72
2022/12/10 04:27:37;;;;;;;177.77;51.53;;;;;;;-3.69;100.00;100742.84;5102010;28;20050;-65
2022/12/10 04:30:04;;;;;;;174.32;50.80;;;;;;;-3.70;100.00;100738.47;5107441;28;20031;-65
2022/12/10 04:32:30;;;;;;;193.70;50.00;;;;;;;-3.73;100.00;100738.28;5105556;28;20467;-65
2022/12/10 04:34:56;;;;;;;187.95;52.88;;;;;;;-3.73;100.00;100740.84;5106133;28;20032;-65
2022/12/10 04:37:22;;;;;;;161.88;51.90;;;;;;;-3.68;100.00;100747.22;5106687;28;20032;-65
2022/12/10 04:39:49;;;;;;;200.75;55.00;;;;;;;-3.69;100.00;100754.06;5105329;28;20036;-65
2022/12/10 04:42:15;;;;;;;170.73;54.28;;;;;;;-3.64;100.00;100750.84;5105924;28;20494;-65
2022/12/10 04:44:40;;;;;;;165.55;52.70;;;;;;;-3.62;100.00;100747.56;5104390;28;20034;-65
2022/12/10 04:47:08;;;;;;;188.23;53.92;;;;;;;-3.60;100.00;100745.97;5107478;28;20035;-66
2022/12/10 04:49:34;;;;;;;163.68;53.38;;;;;;;-3.57;100.00;100750.44;5104486;28;20030;-66
2022/12/10 04:52:00;;;;;;;165.70;54.15;;;;;;;-3.57;100.00;100753.91;5106423;28;20073;-65
2022/12/10 04:54:26;;;;;;;160.27;51.10;;;;;;;-3.56;100.00;100753.09;5105723;28;20032;-65
2022/12/10 04:56:51;;;;;;;144.68;50.08;;;;;;;-3.51;100.00;100754.28;5105189;28;20059;-65
2022/12/10 04:59:17;;;;;;;172.73;51.13;;;;;;;-3.52;100.00;100760.25;5106836;28;20110;-65
2022/12/10 05:01:42;;;;;;;145.88;50.22;;;;;;;-3.51;100.00;100759.44;5102770;28;20032;-65
2022/12/10 05:04:11;;;;;;;165.20;50.90;;;;;;;-3.49;100.00;100754.38;5098527;28;20031;-65
2022/12/10 05:06:36;;;;;;;137.50;49.55;;;;;;;-3.47;100.00;100752.75;5106838;28;20030;-72
2022/12/10 05:09:03;;;;;;;144.57;48.72;;;;;;;-3.46;100.00;100761.41;5104662;28;20474;-71
2022/12/10 05:11:32;;;;;;;135.63;48.72;;;;;;;-3.44;100.00;100759.81;5104552;28;20024;-71
2022/12/10 05:13:58;;;;;;;133.63;48.03;;;;;;;-3.45;100.00;100758.00;5104809;28;20031;-72
2022/12/10 05:16:26;;;;;;;155.35;48.97;;;;;;;-3.50;100.00;100761.22;5105250;28;20024;-72
2022/12/10 05:18:53;;;;;;;142.95;48.33;;;;;;;-3.50;100.00;100755.16;5105907;28;20365;-71
2022/12/10 05:21:20;;;;;;;144.98;47.17;;;;;;;-3.55;100.00;100761.75;5104190;28;20016;-72
2022/12/10 05:23:48;;;;;;;125.93;45.95;;;;;;;-3.55;100.00;100766.94;5106544;27;20023;-72
2022/12/10 05:26:17;;;;;;;141.90;47.42;;;;;;;-3.54;100.00;100769.59;5103496;28;20051;-71
2022/12/10 05:28:47;;;;;;;164.20;47.20;;;;;;;-3.59;100.00;100767.53;5106835;27;20386;-71
2022/12/10 05:31:23;;;;;;;206.10;50.45;;;;;;;-3.61;100.00;100756.19;5098568;28;20068;-71
2022/12/10 05:33:50;;;;;;;159.93;47.03;;;;;;;-3.60;100.00;100764.06;5101574;28;20035;-72
2022/12/10 05:36:18;;;;;;;150.52;48.63;;;;;;;-3.60;100.00;100758.00;5106182;28;20051;-68
2022/12/10 05:38:44;;;;;;;172.68;48.55;;;;;;;-3.61;100.00;100758.78;5103101;28;20030;-69
2022/12/10 05:41:12;;;;;;;162.35;48.85;;;;;;;-3.63;100.00;100758.69;5105139;28;20402;-70
2022/12/10 05:43:37;;;;;;;149.27;47.67;;;;;;;-3.63;100.00;100750.06;5103046;28;20063;-67
2022/12/10 05:46:06;;;;;;;142.85;46.42;;;;;;;-3.64;100.00;100749.19;5104330;28;20104;-67
2022/12/10 05:48:32;;;;;;;161.80;48.30;;;;;;;-3.65;100.00;100755.16;5104276;28;20020;-70
2022/12/10 05:50:58;;;;;;;149.43;47.72;;;;;;;-3.63;100.00;100752.66;5104962;28;20475;-71
2022/12/10 05:53:24;;;;;;;146.85;47.75;;;;;;;-3.60;100.00;100761.47;5104738;28;20035;-71
2022/12/10 05:55:49;;;;;;;145.45;48.03;;;;;;;-3.64;100.00;100756.94;5104059;28;20382;-71
2022/12/10 05:58:15;;;;;;;175.77;49.83;;;;;;;-3.64;100.00;100759.53;5105930;28;20062;-70
2022/12/10 06:00:41;;;;;;;163.95;47.25;;;;;;;-3.63;100.00;100760.41;5102580;28;20024;-70
2022/12/10 06:03:07;;;;;;;153.18;45.42;;;;;;;-3.61;100.00;100766.53;5104812;28;20042;-68
2022/12/10 06:05:40;;;;;;;175.73;46.25;;;;;;;-3.62;100.00;100770.84;5103278;28;20024;-71
2022/12/10 06:08:06;;;;;;;146.40;45.05;;;;;;;-3.58;100.00;100766.72;5105560;28;20104;-71
2022/12/10 06:10:35;;;;;;;144.95;46.25;;;;;;;-3.56;100.00;100771.19;5103585;28;20019;-71
2022/12/10 06:13:00;;;;;;;143.55;45.53;;;;;;;-3.57;100.00;100772.00;5104697;28;20490;-71
2022/12/10 06:15:26;;;;;;;168.35;47.42;;;;;;;-3.57;100.00;100779.78;5104108;28;20020;-71
2022/12/10 06:17:51;;;;;;;153.52;45.88;;;;;;;-3.59;100.00;100776.19;5103581;28;20471;-67
2022/12/10 06:20:16;;;;;;;137.05;44.05;;;;;;;-3.57;100.00;100765.94;5105263;28;20027;-72
2022/12/10 06:22:42;;;;;;;152.43;44.90;;;;;;;-3.58;100.00;100767.63;5102461;28;20071;-72
2022/12/10 06:25:07;;;;;;;158.82;45.85;;;;;;;-3.56;100.00;100772.91;5105897;28;20104;-72
2022/12/10 06:27:33;;;;;;;143.20;45.47;;;;;;;-3.52;100.00;100773.16;5102806;28;20035;-72
2022/12/10 06:29:58;;;;;;;136.32;45.83;;;;;;;-3.48;100.00;100773.34;5104095;28;20028;-65
2022/12/10 06:32:24;;;;;;;145.82;46.08;;;;;;;-3.47;100.00;100780.31;5086206;28;20389;-65
2022/12/10 06:34:49;;;;;;;131.90;44.03;;;;;;;-3.45;100.00;100776.09;5102825;28;20032;-65
2022/12/10 06:37:15;;;;;;;134.35;42.58;;;;;;;-3.47;100.00;100777.72;5104109;28;20034;-65
2022/12/10 06:39:40;;;;;;;166.35;45.53;;;;;;;-3.51;100.00;100780.13;5100973;28;20067;-65
2022/12/10 06:42:05;;;;;;;149.63;43.78;;;;;;;-3.55;100.00;100780.75;5104679;28;20096;-65
2022/12/10 06:44:31;;;;;;;171.25;45.47;;;;;;;-3.59;100.00;100773.59;5103016;28;20027;-66
2022/12/10 06:46:57;;;;;;;129.20;42.63;;;;;;;-3.54;100.00;100782.53;5103775;28;20032;-65
2022/12/10 06:49:22;;;;;;;130.70;43.03;;;;;;;-3.52;100.00;100793.84;5103994;27;20042;-65
2022/12/10 06:51:48;;;;;;;132.68;42.67;;;;;;;-3.47;100.00;100788.06;5101896;28;20518;-65
2022/12/10 06:54:13;;;;;;;133.52;44.38;;;;;;;-3.44;100.00;100791.72;5105036;28;20027;-65
2022/12/10 06:56:38;;;;;;;130.40;42.58;;;;;;;-3.43;100.00;100787.44;5101526;28;20035;-65
2022/12/10 06:59:06;;;;;;;131.45;44.15;;;;;;;-3.43;100.00;100802.97;5104810;28;20036;-65
2022/12/10 07:01:31;;;;;;;140.57;44.85;;;;;;;-3.43;100.00;100802.97;5102533;28;20073;-65
2022/12/10 07:03:57;;;;;;;203.75;46.78;;;;;;;-3.43;100.00;100808.13;5103502;28;20028;-65
2022/12/10 07:06:23;;;;;;;173.45;45.50;;;;;;;-3.45;100.00;100814.88;5104168;28;20501;-65
2022/12/10 07:08:49;;;;;;;166.50;46.05;;;;;;;-3.44;100.00;100807.22;5100741;28;20036;-65
2022/12/10 07:11:17;;;;;;;159.15;46.08;;;;;;;-3.46;100.00;100814.00;5104796;28;20020;-67
2022/12/10 07:13:43;;;;;;;154.55;47.22;;;;;;;-3.45;100.00;100814.88;5101475;28;20020;-67
2022/12/10 07:16:13;;;;;;;165.18;48.67;;;;;;;-3.46;100.00;100811.41;5104679;28;20379;-66
2022/12/10 07:18:39;;;;;;;171.45;48.38;;;;;;;-3.43;100.00;100810.72;5101582;28;20035;-67
2022/12/10 07:21:23;;;;;;;164.13;48.60;;;;;;;-3.41;100.00;100806.50;5104476;28;20028;-67
2022/12/10 07:23:50;;;;;;;153.57;48.70;;;;;;;-3.41;100.00;100809.09;5099250;28;20175;-68
2022/12/10 07:26:16;;;;;;;153.48;49.97;;;;;;;-3.38;100.00;100810.19;5103163;28;20372;-67
2022/12/10 07:28:41;;;;;;;155.13;47.10;;;;;;;-3.37;100.00;100819.72;5099866;28;20030;-67
2022/12/10 07:31:08;;;;;;;153.32;47.13;;;;;;;-3.34;100.00;100821.59;5104397;28;20030;-68
2022/12/10 07:33:34;;;;;;;149.80;49.55;;;;;;;-3.37;100.00;100826.59;5101798;28;20027;-68
2022/12/10 07:36:07;;;;;;;167.95;49.80;;;;;;;-3.36;100.00;100828.38;5103234;28;20021;-67
2022/12/10 07:38:34;;;;;;;150.38;48.58;;;;;;;-3.36;100.00;100825.81;5102163;28;20135;-67
2022/12/10 07:41:08;;;;;;;154.75;50.53;;;;;;;-3.32;100.00;100827.75;5101646;28;20131;-69
2022/12/10 07:43:38;;;;;;;149.38;49.75;;;;;;;-3.30;100.00;100827.88;5100562;28;20039;-68
2022/12/10 07:46:22;;;;;;;160.27;51.67;;;;;;;-3.26;100.00;100828.13;5102260;28;20387;-67
2022/12/10 07:48:49;;;;;;;145.18;49.35;;;;;;;-3.27;100.00;100831.50;5098545;28;20024;-68
2022/12/10 07:51:15;;;;;;;156.65;45.95;;;;;;;-3.27;100.00;100831.50;5103420;28;20059;-66
2022/12/10 07:53:42;;;;;;;165.77;45.28;;;;;;;-3.33;100.00;100829.44;5096930;28;20032;-70
2022/12/10 07:56:07;;;;;;;161.70;47.45;;;;;;;-3.30;100.00;100839.09;5104095;28;20035;-68
2022/12/10 07:58:33;;;;;;;172.23;47.55;;;;;;;-3.31;100.00;100834.72;5101918;28;20073;-67
2022/12/10 08:00:58;;;;;;;188.65;47.60;;;;;;;-3.35;100.00;100836.22;5102716;28;20056;-70
2022/12/10 08:03:23;;;;;;;183.27;47.50;;;;;;;-3.34;100.00;100840.56;5104786;28;20028;-71
2022/12/10 08:05:59;;;;;;;163.70;45.85;;;;;;;-3.33;100.00;100839.78;5104108;28;20016;-71
2022/12/10 08:08:25;;;;;;;206.35;48.50;;;;;;;-3.34;100.00;100842.28;5107220;28;20031;-66
2022/12/10 08:10:50;;;;;;;212.60;48.85;;;;;;;-3.34;100.00;100844.88;5105754;28;20393;-64
2022/12/10 08:13:15;;;;;;;242.85;48.95;;;;;;;-3.35;100.00;100848.25;5108229;27;20086;-65
2022/12/10 08:15:41;;;;;;;183.48;46.67;;;;;;;-3.35;100.00;100849.16;5103425;28;20395;-65
2022/12/10 08:18:06;;;;;;;180.38;47.53;;;;;;;-3.31;100.00;100849.34;5107849;28;20428;-65
2022/12/10 08:20:31;;;;;;;191.00;47.88;;;;;;;-3.30;100.00;100859.78;5106091;28;20501;-64
2022/12/10 08:22:57;;;;;;;225.73;48.08;;;;;;;-3.30;100.00;100857.19;5105150;28;20532;-65
2022/12/10 08:25:22;;;;;;;228.05;48.05;;;;;;;-3.31;100.00;100862.25;5107142;28;20053;-65
2022/12/10 08:27:47;;;;;;;172.77;46.00;;;;;;;-3.28;100.00;100862.44;5103343;28;20046;-65
2022/12/10 08:30:13;;;;;;;235.75;46.47;;;;;;;-3.30;100.00;100872.69;5107885;28;20062;-64
2022/12/10 08:32:38;;;;;;;216.00;46.58;;;;;;;-3.31;100.00;100873.50;5104770;28;20043;-64
2022/12/10 08:35:04;;;;;;;251.32;49.63;;;;;;;-3.29;100.00;100868.41;5107135;28;20091;-65
2022/12/10 08:37:29;;;;;;;175.13;47.78;;;;;;;-3.27;100.00;100866.81;5105770;28;20070;-65
2022/12/10 08:39:55;;;;;;;185.88;46.22;;;;;;;-3.21;100.00;100877.53;5106028;28;20028;-64
2022/12/10 08:42:20;;;;;;;174.55;46.58;;;;;;;-3.20;100.00;100879.34;5106776;28;20071;-65
2022/12/10 08:44:45;;;;;;;202.57;48.05;;;;;;;-3.19;100.00;100881.09;5104133;28;20020;-66
2022/12/10 08:47:11;;;;;;;210.73;48.13;;;;;;;-3.18;100.00;100888.06;5106441;28;20035;-65
2022/12/10 08:49:36;;;;;;;159.38;45.92;;;;;;;-3.10;100.00;100883.34;5104561;27;20035;-64
2022/12/10 08:52:01;;;;;;;144.38;45.80;;;;;;;-3.02;100.00;100895.06;5106372;28;20035;-65
2022/12/10 08:54:27;;;;;;;207.27;44.80;;;;;;;-3.03;100.00;100881.22;5105873;28;20088;-65
2022/12/10 08:56:52;;;;;;;161.00;45.15;;;;;;;-3.00;100.00;100885.66;5104785;28;20031;-65
2022/12/10 08:59:17;;;;;;;163.95;45.97;;;;;;;-2.97;100.00;100891.06;5107299;28;20023;-65
2022/12/10 09:01:43;;;;;;;152.18;44.55;;;;;;;-2.93;100.00;100892.13;5103713;28;20071;-64
2022/12/10 09:04:09;;;;;;;140.70;41.03;;;;;;;-2.95;100.00;100892.03;5106922;28;20035;-64
2022/12/10 09:06:35;;;;;;;162.77;41.95;;;;;;;-3.04;100.00;100892.38;5104617;27;20063;-65
2022/12/10 09:09:00;;;;;;;205.63;43.53;;;;;;;-3.08;100.00;100899.88;5106056;28;20066;-65
2022/12/10 09:11:29;;;;;;;172.18;42.00;;;;;;;-3.07;100.00;100902.53;5105546;28;20467;-65
2022/12/10 09:13:55;;;;;;;149.73;42.75;;;;;;;-3.06;100.00;100900.84;5103209;28;20372;-65
2022/12/10 09:16:21;;;;;;;156.75;41.20;;;;;;;-3.03;100.00;100899.34;5106352;27;20035;-64
2022/12/10 09:18:46;;;;;;;171.38;43.60;;;;;;;-3.03;100.00;100895.84;5103518;28;20426;-65
2022/12/10 09:21:16;;;;;;;161.43;39.50;;;;;;;-3.02;100.00;100897.63;5107221;28;20035;-65
2022/12/10 09:23:42;;;;;;;140.48;36.72;;;;;;;-3.07;100.00;100901.63;5099315;28;20065;-66
2022/12/10 09:26:09;;;;;;;159.13;37.95;;;;;;;-3.10;100.00;100901.44;5106291;28;20106;-64
2022/12/10 09:28:36;;;;;;;177.57;41.10;;;;;;;-3.12;100.00;100898.75;5104190;28;20478;-64
2022/12/10 09:31:03;;;;;;;178.50;42.17;;;;;;;-3.10;100.00;100904.03;5104213;28;20031;-65
2022/12/10 09:33:29;;;;;;;197.88;42.63;;;;;;;-3.06;100.00;100900.84;5104837;28;20073;-65
2022/12/10 09:35:55;;;;;;;174.60;38.83;;;;;;;-3.03;100.00;100907.09;5104663;28;20028;-65
2022/12/10 09:38:20;;;;;;;155.65;40.13;;;;;;;-3.07;100.00;100910.31;5105992;28;20034;-65
2022/12/10 09:41:28;;;;;;;126.68;38.10;;;;;;;-3.02;100.00;100916.63;5103016;28;20447;-64
2022/12/10 09:44:10;;;;;;;144.43;38.50;;;;;;;-3.09;100.00;100916.19;5104153;28;20023;-64
2022/12/10 09:47:00;;;;;;;148.55;38.80;;;;;;;-3.03;100.00;100919.13;5103666;28;20092;-65
2022/12/10 09:49:52;;;;;;;148.20;39.25;;;;;;;-2.96;100.00;100926.44;5102256;28;20020;-65
2022/12/10 09:52:23;;;;;;;121.25;39.10;;;;;;;-2.92;100.00;100924.97;5100208;28;20386;-65
2022/12/10 09:54:58;;;;;;;152.88;39.28;;;;;;;-2.90;100.00;100925.94;5105803;28;20031;-64
2022/12/10 09:57:35;;;;;;;122.43;38.65;;;;;;;-2.82;100.00;100930.75;5103800;28;20483;-65
2022/12/10 10:00:16;;;;;;;110.97;36.95;;;;;;;-2.77;100.00;100923.25;5104141;28;20030;-64
2022/12/10 10:02:41;;;;;;;115.10;35.78;;;;;;;-2.77;100.00;100928.44;5098676;28;20031;-64
2022/12/10 10:05:06;;;;;;;106.05;36.58;;;;;;;-2.79;100.00;100926.59;5105631;28;20039;-65
2022/12/10 10:07:36;;;;;;;118.35;37.50;;;;;;;-2.83;100.00;100939.31;5103967;27;20043;-65
2022/12/10 10:10:16;;;;;;;96.25;35.92;;;;;;;-2.79;100.00;100939.53;5104663;28;20043;-64
2022/12/10 10:12:42;;;;;;;94.18;36.60;;;;;;;-2.76;100.00;100934.53;5098490;28;20058;-67
2022/12/10 10:15:18;;;;;;;88.30;34.63;;;;;;;-2.75;100.00;100942.38;5105618;28;20041;-64
2022/12/10 10:17:46;;;;;;;83.68;33.70;;;;;;;-2.77;100.00;100938.78;5098455;28;20052;-64
2022/12/10 10:20:13;;;;;;;85.60;34.05;;;;;;;-2.78;100.00;100941.28;5097063;28;20150;-65
2022/12/10 10:22:40;;;;;;;89.53;34.67;;;;;;;-2.73;100.00;100942.47;5105656;28;20020;-67
2022/12/10 10:25:12;;;;;;;89.70;33.63;;;;;;;-2.78;100.00;100942.22;5102629;28;20038;-70
2022/12/10 10:27:37;;;;;;;89.60;36.28;;;;;;;-2.73;100.00;100945.06;5103535;28;20034;-71
2022/12/10 10:30:07;;;;;;;87.57;34.88;;;;;;;-2.72;100.00;100944.25;5103660;28;20015;-72
2022/12/10 10:32:35;;;;;;;80.70;34.00;;;;;;;-2.66;100.00;100947.22;5104354;28;20119;-72
2022/12/10 10:35:00;;;;;;;84.93;34.30;;;;;;;-2.65;100.00;100948.97;5103864;28;20403;-72
2022/12/10 10:37:30;;;;;;;85.72;34.78;;;;;;;-2.60;100.00;100942.38;5103363;28;20112;-66
2022/12/10 10:39:57;;;;;;;92.13;35.67;;;;;;;-2.58;100.00;100943.38;5104327;28;20040;-72
2022/12/10 10:42:36;;;;;;;95.80;35.35;;;;;;;-2.61;100.00;100940.59;5102321;28;20448;-72
2022/12/10 10:45:04;;;;;;;93.80;34.03;;;;;;;-2.60;100.00;100937.22;5103233;28;20377;-72
2022/12/10 10:47:36;;;;;;;92.55;33.13;;;;;;;-2.56;100.00;100936.59;5103689;28;20130;-69
2022/12/10 10:50:04;;;;;;;101.78;35.35;;;;;;;-2.55;100.00;100935.81;5103418;28;20534;-71
2022/12/10 10:52:36;;;;;;;102.32;35.05;;;;;;;-2.54;100.00;100937.56;5103418;28;20024;-72
2022/12/10 10:55:02;;;;;;;99.83;35.10;;;;;;;-2.51;100.00;100929.09;5092883;28;20028;-69
2022/12/10 10:57:36;;;;;;;95.45;34.30;;;;;;;-2.52;100.00;100940.25;5090105;28;20374;-69
2022/12/10 11:00:18;;;;;;;92.93;35.13;;;;;;;-2.50;100.00;100936.94;5092670;28;20028;-70
2022/12/10 11:02:43;;;;;;;88.10;34.90;;;;;;;-2.51;100.00;100936.84;5092737;28;20035;-68
2022/12/10 11:05:23;;;;;;;94.47;34.92;;;;;;;-2.55;100.00;100930.63;5095186;28;20024;-69
2022/12/10 11:08:13;;;;;;;94.18;35.15;;;;;;;-2.50;100.00;100936.06;5089878;28;20150;-67
2022/12/10 11:11:01;;;;;;;91.70;35.72;;;;;;;-2.52;100.00;100925.63;5093122;28;20020;-68
2022/12/10 11:13:32;;;;;;;85.47;33.13;;;;;;;-2.47;100.00;100921.59;5096734;28;20028;-68